createdAt,value
2023-10-23T00:01:26.286Z,12.41
2023-10-23T00:03:59.612Z,12.46
2023-10-23T00:06:32.656Z,12.51
2023-10-23T00:09:05.673Z,12.56
2023-10-23T00:11:38.341Z,12.61
2023-10-23T00:14:10.808Z,12.66
2023-10-23T00:16:47.521Z,12.69
2023-10-23T00:19:20.255Z,12.73
2023-10-23T00:21:52.820Z,12.75
2023-10-23T00:24:25.455Z,12.77
2023-10-23T00:26:57.911Z,12.80
2023-10-23T00:29:30.227Z,12.81
2023-10-23T00:32:02.706Z,12.81
2023-10-23T00:34:35.261Z,12.83
2023-10-23T00:37:08.128Z,12.82
2023-10-23T00:39:41.086Z,12.82
2023-10-23T00:42:14.291Z,12.82
2023-10-23T00:44:46.815Z,12.82
2023-10-23T00:47:19.821Z,12.82
2023-10-23T00:49:52.254Z,12.80
2023-10-23T00:52:26.509Z,12.80
2023-10-23T00:55:00.465Z,12.77
2023-10-23T00:57:34.064Z,12.75
2023-10-23T01:00:08.006Z,12.70
2023-10-23T01:02:41.050Z,12.64
2023-10-23T01:05:15.156Z,12.56
2023-10-23T01:07:47.744Z,12.46
2023-10-23T01:10:20.584Z,12.37
2023-10-23T01:12:57.452Z,12.27
2023-10-23T01:15:32.638Z,12.17
2023-10-23T01:18:05.445Z,12.06
2023-10-23T01:20:38.124Z,11.97
2023-10-23T01:23:10.752Z,11.87
2023-10-23T01:25:45.107Z,11.78
2023-10-23T01:28:18.288Z,11.69
2023-10-23T01:30:51.014Z,11.60
2023-10-23T01:33:23.575Z,11.53
2023-10-23T01:35:56.140Z,11.45
2023-10-23T01:38:28.780Z,11.39
2023-10-23T01:41:01.307Z,11.33
2023-10-23T01:43:34.014Z,11.30
2023-10-23T01:46:06.502Z,11.25
2023-10-23T01:48:41.431Z,11.20
2023-10-23T01:51:13.870Z,11.17
2023-10-23T01:53:46.595Z,11.13
2023-10-23T01:56:19.226Z,11.09
2023-10-23T01:58:52.781Z,11.05
2023-10-23T02:01:28.385Z,11.01
2023-10-23T02:04:02.084Z,10.97
2023-10-23T02:06:34.842Z,10.95
2023-10-23T02:09:09.299Z,10.91
2023-10-23T02:11:42.237Z,10.88
2023-10-23T02:14:16.361Z,10.84
2023-10-23T02:16:49.079Z,10.81
2023-10-23T02:19:21.482Z,10.77
2023-10-23T02:21:54.049Z,10.73
2023-10-23T02:24:27.032Z,10.69
2023-10-23T02:27:02.139Z,10.66
2023-10-23T02:29:34.639Z,10.63
2023-10-23T02:32:07.906Z,10.60
2023-10-23T02:34:41.368Z,10.56
2023-10-23T02:37:14.091Z,10.52
2023-10-23T02:39:47.248Z,10.48
2023-10-23T02:42:19.929Z,10.43
2023-10-23T02:44:52.381Z,10.41
2023-10-23T02:47:24.858Z,10.37
2023-10-23T02:49:58.147Z,10.32
2023-10-23T02:52:32.821Z,10.28
2023-10-23T02:55:05.718Z,10.24
2023-10-23T02:57:38.222Z,10.19
2023-10-23T03:00:12.329Z,10.15
2023-10-23T03:02:45.814Z,10.11
2023-10-23T03:05:18.814Z,10.09
2023-10-23T03:07:51.839Z,10.07
2023-10-23T03:10:24.409Z,10.04
2023-10-23T03:12:57.102Z,9.99
2023-10-23T03:15:30.287Z,9.95
2023-10-23T03:18:05.307Z,9.89
2023-10-23T03:20:38.085Z,9.85
2023-10-23T03:23:10.910Z,9.78
2023-10-23T03:25:43.904Z,9.72
2023-10-23T03:28:17.877Z,9.66
2023-10-23T03:30:51.276Z,9.60
2023-10-23T03:33:24.019Z,9.56
2023-10-23T03:35:56.541Z,9.52
2023-10-23T03:38:28.872Z,9.50
2023-10-23T03:41:04.244Z,9.49
2023-10-23T03:43:36.604Z,9.50
2023-10-23T03:46:09.429Z,9.54
2023-10-23T03:48:43.259Z,9.58
2023-10-23T03:51:15.795Z,9.60
2023-10-23T03:53:50.321Z,9.61
2023-10-23T03:56:22.782Z,9.60
2023-10-23T03:58:55.461Z,9.55
2023-10-23T04:01:28.185Z,9.51
2023-10-23T04:04:00.974Z,9.47
2023-10-23T04:06:35.730Z,9.44
2023-10-23T04:09:08.775Z,9.42
2023-10-23T04:11:41.113Z,9.41
2023-10-23T04:14:13.531Z,9.39
2023-10-23T04:16:46.183Z,9.35
2023-10-23T04:19:21.522Z,9.31
2023-10-23T04:21:53.899Z,9.27
2023-10-23T04:24:26.609Z,9.24
2023-10-23T04:26:58.937Z,9.21
2023-10-23T04:29:31.463Z,9.18
2023-10-23T04:32:05.610Z,9.15
2023-10-23T04:34:38.161Z,9.13
2023-10-23T04:37:10.703Z,9.10
2023-10-23T04:39:43.419Z,9.08
2023-10-23T04:42:15.936Z,9.05
2023-10-23T04:44:51.298Z,9.01
2023-10-23T04:47:23.916Z,8.97
2023-10-23T04:49:56.588Z,8.94
2023-10-23T04:52:28.876Z,8.92
2023-10-23T04:55:01.274Z,8.90
2023-10-23T04:57:36.567Z,8.88
2023-10-23T05:00:12.305Z,8.87
2023-10-23T05:02:44.597Z,8.88
2023-10-23T05:05:17.622Z,8.89
2023-10-23T05:07:50.276Z,8.93
2023-10-23T05:10:24.125Z,8.97
2023-10-23T05:12:57.369Z,9.01
2023-10-23T05:15:30.391Z,9.03
2023-10-23T05:18:03.450Z,9.04
2023-10-23T05:20:38.657Z,9.04
2023-10-23T05:23:13.288Z,9.03
2023-10-23T05:25:49.176Z,9.00
2023-10-23T05:28:21.719Z,8.97
2023-10-23T05:30:55.902Z,8.95
2023-10-23T05:33:28.806Z,8.93
2023-10-23T05:36:10.645Z,8.90
2023-10-23T05:38:43.196Z,8.88
2023-10-23T05:41:15.834Z,8.88
2023-10-23T05:43:50.359Z,8.88
2023-10-23T05:46:25.058Z,8.89
2023-10-23T05:48:58.049Z,8.90
2023-10-23T05:51:30.369Z,8.91
2023-10-23T05:54:04.250Z,8.93
2023-10-23T05:56:36.887Z,8.96
2023-10-23T05:59:10.896Z,9.01
2023-10-23T06:01:43.512Z,9.08
2023-10-23T06:04:16.147Z,9.15
2023-10-23T06:06:49.034Z,9.24
2023-10-23T06:09:21.727Z,9.34
2023-10-23T06:11:54.510Z,9.46
2023-10-23T06:14:27.157Z,9.60
2023-10-23T06:17:00.859Z,9.73
2023-10-23T06:19:34.801Z,9.89
2023-10-23T06:22:09.487Z,10.04
2023-10-23T06:24:43.046Z,10.19
2023-10-23T06:27:15.620Z,10.35
2023-10-23T06:29:51.381Z,10.51
2023-10-23T06:32:24.045Z,10.66
2023-10-23T06:34:56.518Z,10.78
2023-10-23T06:37:29.151Z,10.90
2023-10-23T06:40:01.888Z,11.00
2023-10-23T06:42:34.764Z,11.10
2023-10-23T06:45:08.556Z,11.20
2023-10-23T06:47:42.010Z,11.28
2023-10-23T06:50:15.023Z,11.35
2023-10-23T06:52:47.984Z,11.43
2023-10-23T06:55:20.820Z,11.52
2023-10-23T06:57:53.810Z,11.66
2023-10-23T07:00:26.672Z,11.76
2023-10-23T07:02:59.392Z,11.85
2023-10-23T07:05:33.034Z,11.92
2023-10-23T07:08:06.092Z,11.97
2023-10-23T07:10:39.427Z,12.00
2023-10-23T07:13:22.102Z,12.03
2023-10-23T07:15:55.914Z,12.07
2023-10-23T07:18:29.859Z,12.12
2023-10-23T07:21:04.620Z,12.18
2023-10-23T07:23:37.306Z,12.28
2023-10-23T07:26:14.441Z,12.39
2023-10-23T07:28:47.187Z,12.53
2023-10-23T07:31:20.566Z,12.68
2023-10-23T07:33:55.697Z,12.84
2023-10-23T07:36:28.306Z,13.00
2023-10-23T07:39:02.539Z,13.17
2023-10-23T07:41:34.946Z,13.32
2023-10-23T07:44:07.863Z,13.47
2023-10-23T07:46:41.198Z,13.61
2023-10-23T07:49:14.367Z,13.75
2023-10-23T07:51:47.189Z,13.86
2023-10-23T07:54:20.152Z,13.97
2023-10-23T07:56:56.610Z,14.09
2023-10-23T07:59:31.556Z,14.23
2023-10-23T08:02:04.481Z,14.40
2023-10-23T08:04:37.082Z,14.54
2023-10-23T08:07:09.978Z,14.66
2023-10-23T08:09:45.356Z,14.74
2023-10-23T08:12:18.444Z,14.80
2023-10-23T08:14:51.928Z,14.87
2023-10-23T08:20:05.349Z,15.03
2023-10-23T08:22:38.249Z,15.06
2023-10-23T08:25:11.643Z,15.08
2023-10-23T08:27:44.347Z,15.13
2023-10-23T08:30:24.542Z,15.19
2023-10-23T08:32:57.465Z,15.24
2023-10-23T08:35:35.260Z,15.31
2023-10-23T08:38:09.989Z,15.38
2023-10-23T08:40:43.324Z,15.48
2023-10-23T08:43:16.240Z,15.57
2023-10-23T08:45:55.823Z,15.63
2023-10-23T08:48:29.305Z,15.68
2023-10-23T08:51:04.623Z,15.74
2023-10-23T08:53:41.183Z,15.79
2023-10-23T08:56:14.893Z,15.87
2023-10-23T08:58:58.105Z,15.97
2023-10-23T09:01:32.586Z,16.09
2023-10-23T09:04:08.553Z,16.22
2023-10-23T09:06:42.141Z,16.30
2023-10-23T09:09:14.980Z,16.25
2023-10-23T09:11:50.026Z,16.20
2023-10-23T09:14:29.831Z,16.18
2023-10-23T09:17:05.101Z,16.07
2023-10-23T09:19:41.386Z,15.94
2023-10-23T09:22:14.431Z,15.87
2023-10-23T09:24:48.115Z,15.84
2023-10-23T09:27:25.877Z,15.92
2023-10-23T09:30:08.322Z,16.05
2023-10-23T09:32:41.643Z,16.16
2023-10-23T09:35:14.821Z,16.24
2023-10-23T09:37:47.668Z,16.35
2023-10-23T09:40:20.557Z,16.50
2023-10-23T09:42:53.459Z,16.64
2023-10-23T09:45:26.557Z,16.69
2023-10-23T09:48:02.061Z,16.72
2023-10-23T09:50:37.656Z,16.74
2023-10-23T09:53:12.854Z,16.78
2023-10-23T09:55:45.850Z,16.80
2023-10-23T09:58:23.032Z,16.80
2023-10-23T10:00:58.359Z,16.83
2023-10-23T10:03:35.807Z,16.91
2023-10-23T10:06:18.637Z,17.00
2023-10-23T10:08:53.408Z,17.01
2023-10-23T10:11:27.675Z,16.99
2023-10-23T10:14:01.154Z,16.99
2023-10-23T10:16:39.036Z,16.98
2023-10-23T10:19:13.535Z,16.96
2023-10-23T10:21:53.521Z,16.96
2023-10-23T10:24:27.993Z,16.99
2023-10-23T10:27:05.132Z,17.04
2023-10-23T10:29:37.934Z,17.09
2023-10-23T10:32:13.957Z,17.13
2023-10-23T10:34:58.333Z,17.15
2023-10-23T10:37:33.912Z,17.18
2023-10-23T10:40:11.070Z,17.27
2023-10-23T10:42:47.207Z,17.42
2023-10-23T10:45:22.057Z,17.58
2023-10-23T10:47:56.117Z,17.68
2023-10-23T10:50:37.225Z,17.76
2023-10-23T10:53:15.608Z,17.89
2023-10-23T10:55:50.270Z,18.03
2023-10-23T10:58:23.390Z,18.12
2023-10-23T11:00:55.964Z,18.20
2023-10-23T11:03:31.764Z,18.27
2023-10-23T11:06:05.659Z,18.42
2023-10-23T11:08:42.721Z,18.67
2023-10-23T11:11:16.037Z,18.93
2023-10-23T11:13:49.428Z,19.07
2023-10-23T11:16:22.865Z,19.16
2023-10-23T11:18:58.075Z,19.26
2023-10-23T11:21:30.808Z,19.37
2023-10-23T11:24:05.390Z,19.46
2023-10-23T11:26:38.438Z,19.47
2023-10-23T11:29:13.101Z,19.41
2023-10-23T11:31:46.786Z,19.34
2023-10-23T11:34:20.639Z,19.28
2023-10-23T11:36:54.028Z,19.14
2023-10-23T11:39:26.643Z,18.97
2023-10-23T11:42:01.752Z,18.86
2023-10-23T11:44:36.288Z,18.79
2023-10-23T11:47:09.970Z,18.73
2023-10-23T11:49:49.862Z,18.67
2023-10-23T11:52:24.843Z,18.62
2023-10-23T11:54:57.982Z,18.62
2023-10-23T11:57:30.704Z,18.62
2023-10-23T12:00:08.284Z,18.62
2023-10-23T12:02:46.221Z,18.63
2023-10-23T12:05:22.959Z,18.62
2023-10-23T12:07:57.255Z,18.57
2023-10-23T12:10:30.193Z,18.56
2023-10-23T12:13:03.949Z,18.54
2023-10-23T12:15:39.121Z,18.62
2023-10-23T12:18:12.545Z,18.70
2023-10-23T12:20:44.954Z,18.72
2023-10-23T12:23:17.774Z,18.69
2023-10-23T12:25:50.456Z,18.66
2023-10-23T12:28:23.147Z,18.59
2023-10-23T12:30:55.840Z,18.54
2023-10-23T12:33:36.088Z,18.49
2023-10-23T12:36:11.454Z,18.44
2023-10-23T12:38:45.562Z,18.36
2023-10-23T12:41:17.949Z,18.33
2023-10-23T12:43:50.561Z,18.31
2023-10-23T12:46:23.985Z,18.32
2023-10-23T12:48:56.648Z,18.32
2023-10-23T12:51:29.378Z,18.27
2023-10-23T12:54:04.454Z,18.28
2023-10-23T12:56:36.818Z,18.24
2023-10-23T12:59:09.404Z,18.19
2023-10-23T13:01:42.018Z,18.17
2023-10-23T13:04:14.649Z,18.17
2023-10-23T13:06:47.618Z,18.20
2023-10-23T13:09:20.230Z,18.25
2023-10-23T13:11:54.468Z,18.27
2023-10-23T13:14:27.600Z,18.28
2023-10-23T13:17:02.817Z,18.35
2023-10-23T13:19:35.615Z,18.42
2023-10-23T13:22:11.893Z,18.47
2023-10-23T13:24:44.680Z,18.55
2023-10-23T13:27:18.021Z,18.68
2023-10-23T13:29:50.753Z,18.78
2023-10-23T13:32:23.116Z,18.83
2023-10-23T13:34:55.646Z,18.84
2023-10-23T13:37:28.607Z,18.87
2023-10-23T13:40:01.188Z,18.94
2023-10-23T13:42:37.960Z,19.02
2023-10-23T13:45:13.220Z,19.08
2023-10-23T13:47:49.546Z,19.10
2023-10-23T13:50:21.945Z,19.09
2023-10-23T13:52:55.835Z,19.08
2023-10-23T13:55:28.690Z,19.05
2023-10-23T13:58:04.418Z,18.96
2023-10-23T14:00:36.688Z,18.78
2023-10-23T14:03:09.769Z,18.56
2023-10-23T14:05:44.488Z,18.36
2023-10-23T14:08:17.091Z,18.18
2023-10-23T14:11:58.538Z,18.04
2023-10-23T14:13:42.816Z,17.95
2023-10-23T14:16:16.227Z,17.88
2023-10-23T14:18:49.043Z,17.79
2023-10-23T14:21:21.627Z,17.67
2023-10-23T14:23:54.419Z,17.54
2023-10-23T14:26:30.440Z,17.41
2023-10-23T14:29:02.829Z,17.26
2023-10-23T14:31:35.342Z,17.12
2023-10-23T14:34:08.126Z,16.98
2023-10-23T14:36:42.746Z,16.88
2023-10-23T14:39:15.225Z,16.74
2023-10-23T14:41:47.742Z,16.61
2023-10-23T14:44:20.144Z,16.46
2023-10-23T14:46:54.013Z,16.31
2023-10-23T14:49:26.783Z,16.18
2023-10-23T14:51:59.858Z,16.05
2023-10-23T14:54:32.378Z,15.91
2023-10-23T14:57:05.333Z,15.76
2023-10-23T14:59:37.988Z,15.61
2023-10-23T15:02:13.389Z,15.44
2023-10-23T15:04:46.119Z,15.29
2023-10-23T15:07:19.020Z,15.12
2023-10-23T15:09:51.912Z,14.96
2023-10-23T15:12:24.533Z,14.80
2023-10-23T15:14:59.257Z,14.62
2023-10-23T15:17:31.747Z,14.45
2023-10-23T15:20:04.600Z,14.26
2023-10-23T15:22:37.174Z,14.08
2023-10-23T15:25:12.163Z,13.90
2023-10-23T15:27:44.762Z,13.72
2023-10-23T15:30:17.923Z,13.55
2023-10-23T15:32:50.634Z,13.37
2023-10-23T15:35:25.528Z,13.20
2023-10-23T15:37:59.723Z,13.04
2023-10-23T15:40:32.730Z,12.88
2023-10-23T15:43:05.174Z,12.72
2023-10-23T15:45:41.057Z,12.57
2023-10-23T15:48:13.662Z,12.42
2023-10-23T15:50:46.314Z,12.29
2023-10-23T15:53:19.581Z,12.14
2023-10-23T15:55:52.196Z,12.00
2023-10-23T15:58:28.203Z,11.87
2023-10-23T16:01:03.696Z,11.75
2023-10-23T16:03:38.208Z,11.63
2023-10-23T16:06:11.005Z,11.51
2023-10-23T16:08:43.722Z,11.40
2023-10-23T16:11:20.768Z,11.30
2023-10-23T16:13:53.490Z,11.21
2023-10-23T16:16:25.986Z,11.14
2023-10-23T16:18:58.667Z,11.07
2023-10-23T16:21:32.064Z,11.00
2023-10-23T16:24:06.064Z,10.93
2023-10-23T16:26:38.362Z,10.85
2023-10-23T16:29:10.957Z,10.77
2023-10-23T16:31:43.374Z,10.71
2023-10-23T16:34:16.161Z,10.63
2023-10-23T16:36:50.244Z,10.56
2023-10-23T16:39:23.044Z,10.49
2023-10-23T16:41:55.720Z,10.42
2023-10-23T16:44:37.533Z,10.35
2023-10-23T16:47:17.461Z,10.29
2023-10-23T16:49:53.182Z,10.22
2023-10-23T16:52:25.797Z,10.16
2023-10-23T16:55:00.028Z,10.08
2023-10-23T16:57:33.997Z,10.03
2023-10-23T17:00:07.797Z,9.95
2023-10-23T17:02:40.691Z,9.90
2023-10-23T17:05:13.997Z,9.84
2023-10-23T17:07:46.799Z,9.79
2023-10-23T17:10:20.695Z,9.73
2023-10-23T17:12:53.598Z,9.68
2023-10-23T17:15:29.420Z,9.63
2023-10-23T17:18:03.393Z,9.56
2023-10-23T17:20:39.948Z,9.51
2023-10-23T17:23:12.340Z,9.45
2023-10-23T17:25:46.992Z,9.40
2023-10-23T17:28:19.731Z,9.36
2023-10-23T17:31:00.199Z,9.33
2023-10-23T17:33:35.103Z,9.29
2023-10-23T17:36:08.729Z,9.24
2023-10-23T17:38:41.173Z,9.19
2023-10-23T17:41:18.531Z,9.14
2023-10-23T17:43:50.980Z,9.10
2023-10-23T17:46:23.774Z,9.04
2023-10-23T17:48:56.680Z,8.98
2023-10-23T17:51:31.581Z,8.93
2023-10-23T17:54:06.655Z,8.88
2023-10-23T17:56:39.158Z,8.83
2023-10-23T17:59:12.736Z,8.78
2023-10-23T18:01:47.318Z,8.72
2023-10-23T18:04:20.402Z,8.67
2023-10-23T18:06:54.297Z,8.61
2023-10-23T18:09:28.159Z,8.56
2023-10-23T18:12:02.011Z,8.50
2023-10-23T18:14:34.956Z,8.45
2023-10-23T18:17:07.702Z,8.40
2023-10-23T18:19:40.322Z,8.36
2023-10-23T18:22:13.023Z,8.31
2023-10-23T18:24:46.088Z,8.27
2023-10-23T18:27:18.603Z,8.23
2023-10-23T18:29:51.838Z,8.20
2023-10-23T18:32:24.872Z,8.17
2023-10-23T18:34:58.543Z,8.14
2023-10-23T18:37:31.146Z,8.10
2023-10-23T18:40:03.769Z,8.07
2023-10-23T18:42:38.329Z,8.06
2023-10-23T18:45:12.001Z,8.03
2023-10-23T18:47:44.465Z,8.02
2023-10-23T18:50:17.191Z,8.03
2023-10-23T18:52:51.617Z,8.05
2023-10-23T18:55:25.572Z,8.07
2023-10-23T18:57:58.616Z,8.07
2023-10-23T19:00:31.191Z,8.09
2023-10-23T19:03:04.024Z,8.09
2023-10-23T19:05:38.605Z,8.08
2023-10-23T19:08:11.205Z,8.08
2023-10-23T19:10:43.802Z,8.08
2023-10-23T19:13:16.535Z,8.07
2023-10-23T19:15:56.151Z,8.05
2023-10-23T19:18:31.246Z,8.04
2023-10-23T19:21:06.476Z,8.04
2023-10-23T19:23:39.486Z,8.02
2023-10-23T19:26:12.216Z,8.02
2023-10-23T19:28:45.960Z,8.01
2023-10-23T19:31:23.245Z,7.97
2023-10-23T19:33:58.414Z,7.92
2023-10-23T19:36:33.838Z,7.87
2023-10-23T19:39:09.191Z,7.83
2023-10-23T19:41:49.847Z,7.78
2023-10-23T19:44:25.895Z,7.74
2023-10-23T19:46:59.390Z,7.70
2023-10-23T19:49:33.135Z,7.67
2023-10-23T19:52:12.286Z,7.63
2023-10-23T19:54:51.135Z,7.59
2023-10-23T19:57:25.839Z,7.54
2023-10-23T19:59:58.543Z,7.52
2023-10-23T20:02:31.083Z,7.50
2023-10-23T20:05:05.906Z,7.48
2023-10-23T20:07:38.553Z,7.47
2023-10-23T20:10:14.797Z,7.47
2023-10-23T20:12:48.766Z,7.47
2023-10-23T20:15:22.321Z,7.47
2023-10-23T20:17:54.920Z,7.49
2023-10-23T20:20:27.856Z,7.51
2023-10-23T20:23:00.381Z,7.53
2023-10-23T20:25:33.827Z,7.56
2023-10-23T20:28:07.887Z,7.59
2023-10-23T20:30:40.314Z,7.62
2023-10-23T20:33:13.051Z,7.65
2023-10-23T20:35:46.736Z,7.66
2023-10-23T20:38:19.300Z,7.67
2023-10-23T20:40:53.511Z,7.68
2023-10-23T20:43:26.736Z,7.68
2023-10-23T20:46:01.530Z,7.68
2023-10-23T20:48:34.491Z,7.68
2023-10-23T20:51:11.483Z,7.66
2023-10-23T20:53:44.392Z,7.64
2023-10-23T20:56:16.888Z,7.59
2023-10-23T20:58:49.387Z,7.55
2023-10-23T21:01:22.225Z,7.50
2023-10-23T21:03:55.086Z,7.45
2023-10-23T21:06:33.757Z,7.39
2023-10-23T21:09:06.732Z,7.34
2023-10-23T21:11:39.340Z,7.28
2023-10-23T21:14:12.097Z,7.22
2023-10-23T21:16:44.674Z,7.17
2023-10-23T21:19:18.982Z,7.12
2023-10-23T21:21:51.942Z,7.07
2023-10-23T21:24:24.420Z,7.02
2023-10-23T21:26:57.142Z,6.98
2023-10-23T21:29:29.605Z,6.94
2023-10-23T21:32:02.306Z,6.91
2023-10-23T21:34:34.931Z,6.90
2023-10-23T21:37:07.584Z,6.87
2023-10-23T21:39:40.182Z,6.84
2023-10-23T21:42:13.616Z,6.79
2023-10-23T21:44:46.084Z,6.74
2023-10-23T21:47:18.853Z,6.68
2023-10-23T21:49:53.264Z,6.63
2023-10-23T21:52:27.102Z,6.57
2023-10-23T21:55:02.534Z,6.56
2023-10-23T21:57:36.687Z,6.57
2023-10-23T22:00:19.010Z,6.56
2023-10-23T22:02:52.181Z,6.51
2023-10-23T22:05:27.517Z,6.46
2023-10-23T22:08:01.046Z,6.42
2023-10-23T22:10:34.521Z,6.37
2023-10-23T22:13:09.100Z,6.33
2023-10-23T22:15:41.878Z,6.29
2023-10-23T22:18:16.052Z,6.25
2023-10-23T22:20:48.909Z,6.22
2023-10-23T22:23:21.548Z,6.19
2023-10-23T22:25:54.438Z,6.16
2023-10-23T22:28:26.720Z,6.12
2023-10-23T22:31:00.658Z,6.10
2023-10-23T22:33:33.318Z,6.09
2023-10-23T22:36:05.927Z,6.10
2023-10-23T22:38:38.465Z,6.10
2023-10-23T22:41:10.810Z,6.11
2023-10-23T22:43:43.867Z,6.12
2023-10-23T22:46:16.408Z,6.13
2023-10-23T22:48:49.149Z,6.14
2023-10-23T22:51:22.474Z,6.15
2023-10-23T22:53:55.739Z,6.13
2023-10-23T22:56:29.974Z,6.11
2023-10-23T22:59:08.499Z,6.08
2023-10-23T23:01:42.587Z,6.04
2023-10-23T23:04:16.566Z,6.01
2023-10-23T23:06:53.478Z,5.96
2023-10-23T23:09:27.226Z,5.92
2023-10-23T23:12:00.685Z,5.89
2023-10-23T23:14:34.055Z,5.85
2023-10-23T23:17:08.142Z,5.82
2023-10-23T23:19:44.124Z,5.85
2023-10-23T23:22:17.023Z,5.84
2023-10-23T23:24:49.409Z,5.80
2023-10-23T23:27:22.025Z,5.74
2023-10-23T23:29:55.461Z,5.72
2023-10-23T23:32:29.883Z,5.69
2023-10-23T23:35:02.525Z,5.66
2023-10-23T23:37:34.913Z,5.66
2023-10-23T23:40:08.777Z,5.66
2023-10-23T23:42:41.410Z,5.64
2023-10-23T23:45:15.511Z,5.63
2023-10-23T23:47:48.043Z,5.63
2023-10-23T23:50:20.576Z,5.62
2023-10-23T23:52:54.510Z,5.64
2023-10-23T23:55:28.186Z,5.65
2023-10-23T23:58:00.871Z,5.67
